sensor_id;sensor_type;location;lat;lon;timestamp;temperature;humidity
75994;DHT22;64680;53.800;9.988;2022-11-04T00:01:29;9.20;68.90
75994;DHT22;64680;53.800;9.988;2022-11-04T00:03:55;9.20;69.20
75994;DHT22;64680;53.800;9.988;2022-11-04T00:06:21;9.10;69.10
75994;DHT22;64680;53.800;9.988;2022-11-04T00:08:50;9.20;69.00
75994;DHT22;64680;53.800;9.988;2022-11-04T00:11:17;9.20;69.40
75994;DHT22;64680;53.800;9.988;2022-11-04T00:14:02;9.20;69.40
75994;DHT22;64680;53.800;9.988;2022-11-04T00:16:27;9.20;69.90
75994;DHT22;64680;53.800;9.988;2022-11-04T00:19:12;9.20;70.40
75994;DHT22;64680;53.800;9.988;2022-11-04T00:21:37;9.10;71.50
75994;DHT22;64680;53.800;9.988;2022-11-04T00:24:21;9.10;71.10
75994;DHT22;64680;53.800;9.988;2022-11-04T00:27:10;9.10;71.70
75994;DHT22;64680;53.800;9.988;2022-11-04T00:29:55;9.10;72.30
75994;DHT22;64680;53.800;9.988;2022-11-04T00:32:20;9.10;73.20
75994;DHT22;64680;53.800;9.988;2022-11-04T00:35:05;9.10;72.40
75994;DHT22;64680;53.800;9.988;2022-11-04T00:37:31;9.00;72.70
75994;DHT22;64680;53.800;9.988;2022-11-04T00:39:56;9.00;73.60
75994;DHT22;64680;53.800;9.988;2022-11-04T00:42:22;9.00;74.00
75994;DHT22;64680;53.800;9.988;2022-11-04T00:44:47;9.00;73.70
75994;DHT22;64680;53.800;9.988;2022-11-04T00:47:13;9.00;74.30
75994;DHT22;64680;53.800;9.988;2022-11-04T00:49:38;9.00;73.70
75994;DHT22;64680;53.800;9.988;2022-11-04T00:52:04;9.00;74.10
75994;DHT22;64680;53.800;9.988;2022-11-04T00:54:30;8.90;74.20
75994;DHT22;64680;53.800;9.988;2022-11-04T00:56:55;9.00;74.10
75994;DHT22;64680;53.800;9.988;2022-11-04T00:59:21;8.90;74.30
75994;DHT22;64680;53.800;9.988;2022-11-04T01:01:46;8.90;74.90
75994;DHT22;64680;53.800;9.988;2022-11-04T01:04:12;8.90;74.60
75994;DHT22;64680;53.800;9.988;2022-11-04T01:06:37;9.00;74.70
75994;DHT22;64680;53.800;9.988;2022-11-04T01:09:06;9.00;74.70
75994;DHT22;64680;53.800;9.988;2022-11-04T01:11:35;9.00;74.80
75994;DHT22;64680;53.800;9.988;2022-11-04T01:14:01;9.00;74.50
75994;DHT22;64680;53.800;9.988;2022-11-04T01:16:27;9.00;74.50
75994;DHT22;64680;53.800;9.988;2022-11-04T01:18:53;9.00;74.60
75994;DHT22;64680;53.800;9.988;2022-11-04T01:21:18;9.00;74.40
75994;DHT22;64680;53.800;9.988;2022-11-04T01:23:45;9.00;74.70
75994;DHT22;64680;53.800;9.988;2022-11-04T01:26:19;9.10;74.60
75994;DHT22;64680;53.800;9.988;2022-11-04T01:28:46;9.00;74.90
75994;DHT22;64680;53.800;9.988;2022-11-04T01:31:14;9.00;74.40
75994;DHT22;64680;53.800;9.988;2022-11-04T01:33:40;9.10;74.70
75994;DHT22;64680;53.800;9.988;2022-11-04T01:36:06;9.10;74.70
75994;DHT22;64680;53.800;9.988;2022-11-04T01:38:32;9.10;74.90
75994;DHT22;64680;53.800;9.988;2022-11-04T01:40:58;9.20;75.10
75994;DHT22;64680;53.800;9.988;2022-11-04T01:46:08;9.20;75.20
75994;DHT22;64680;53.800;9.988;2022-11-04T01:48:36;9.20;75.50
75994;DHT22;64680;53.800;9.988;2022-11-04T01:51:02;9.10;75.90
75994;DHT22;64680;53.800;9.988;2022-11-04T01:53:33;9.20;76.00
75994;DHT22;64680;53.800;9.988;2022-11-04T01:56:04;9.10;76.40
75994;DHT22;64680;53.800;9.988;2022-11-04T01:58:47;9.20;76.40
75994;DHT22;64680;53.800;9.988;2022-11-04T02:01:14;9.10;76.40
75994;DHT22;64680;53.800;9.988;2022-11-04T02:03:48;9.20;76.50
75994;DHT22;64680;53.800;9.988;2022-11-04T02:06:16;9.20;76.30
75994;DHT22;64680;53.800;9.988;2022-11-04T02:08:42;9.20;76.70
75994;DHT22;64680;53.800;9.988;2022-11-04T02:11:08;9.20;76.50
75994;DHT22;64680;53.800;9.988;2022-11-04T02:13:35;9.20;76.50
75994;DHT22;64680;53.800;9.988;2022-11-04T02:18:45;9.20;76.30
75994;DHT22;64680;53.800;9.988;2022-11-04T02:21:35;9.20;76.10
75994;DHT22;64680;53.800;9.988;2022-11-04T02:30:19;9.20;76.50
75994;DHT22;64680;53.800;9.988;2022-11-04T02:49:13;9.40;75.50
75994;DHT22;64680;53.800;9.988;2022-11-04T02:51:50;9.40;75.80
75994;DHT22;64680;53.800;9.988;2022-11-04T02:54:41;9.40;75.70
75994;DHT22;64680;53.800;9.988;2022-11-04T02:57:14;9.40;75.90
75994;DHT22;64680;53.800;9.988;2022-11-04T02:59:42;9.40;76.20
75994;DHT22;64680;53.800;9.988;2022-11-04T03:02:13;9.40;76.00
75994;DHT22;64680;53.800;9.988;2022-11-04T03:04:43;9.40;76.40
75994;DHT22;64680;53.800;9.988;2022-11-04T03:07:14;9.50;76.10
75994;DHT22;64680;53.800;9.988;2022-11-04T03:09:44;9.50;76.10
75994;DHT22;64680;53.800;9.988;2022-11-04T03:12:16;9.50;76.30
75994;DHT22;64680;53.800;9.988;2022-11-04T03:14:52;9.40;76.80
75994;DHT22;64680;53.800;9.988;2022-11-04T03:17:43;9.40;76.80
75994;DHT22;64680;53.800;9.988;2022-11-04T03:20:17;9.40;77.40
75994;DHT22;64680;53.800;9.988;2022-11-04T03:22:45;9.40;77.70
75994;DHT22;64680;53.800;9.988;2022-11-04T03:25:11;9.40;77.50
75994;DHT22;64680;53.800;9.988;2022-11-04T03:30:19;9.40;78.30
75994;DHT22;64680;53.800;9.988;2022-11-04T03:35:34;9.40;78.40
75994;DHT22;64680;53.800;9.988;2022-11-04T03:38:00;9.40;78.50
75994;DHT22;64680;53.800;9.988;2022-11-04T03:40:26;9.40;78.50
75994;DHT22;64680;53.800;9.988;2022-11-04T03:42:55;9.40;78.60
75994;DHT22;64680;53.800;9.988;2022-11-04T03:45:22;9.40;78.80
75994;DHT22;64680;53.800;9.988;2022-11-04T03:47:49;9.30;78.90
75994;DHT22;64680;53.800;9.988;2022-11-04T03:50:51;9.30;79.00
75994;DHT22;64680;53.800;9.988;2022-11-04T03:53:12;9.30;79.30
75994;DHT22;64680;53.800;9.988;2022-11-04T04:06:49;9.40;79.10
75994;DHT22;64680;53.800;9.988;2022-11-04T04:09:25;9.40;79.40
75994;DHT22;64680;53.800;9.988;2022-11-04T04:12:08;9.40;79.50
75994;DHT22;64680;53.800;9.988;2022-11-04T04:14:43;9.40;79.60
75994;DHT22;64680;53.800;9.988;2022-11-04T04:19:52;9.50;80.00
75994;DHT22;64680;53.800;9.988;2022-11-04T04:22:25;9.60;79.80
75994;DHT22;64680;53.800;9.988;2022-11-04T04:24:54;9.70;79.50
75994;DHT22;64680;53.800;9.988;2022-11-04T04:27:40;9.70;79.40
75994;DHT22;64680;53.800;9.988;2022-11-04T04:30:12;9.70;79.50
75994;DHT22;64680;53.800;9.988;2022-11-04T04:32:43;9.60;79.50
75994;DHT22;64680;53.800;9.988;2022-11-04T04:35:10;9.70;79.60
75994;DHT22;64680;53.800;9.988;2022-11-04T04:37:57;9.70;79.60
75994;DHT22;64680;53.800;9.988;2022-11-04T04:40:59;9.70;79.50
75994;DHT22;64680;53.800;9.988;2022-11-04T04:43:45;9.80;79.50
75994;DHT22;64680;53.800;9.988;2022-11-04T04:46:30;9.80;79.30
75994;DHT22;64680;53.800;9.988;2022-11-04T04:49:06;9.90;79.20
75994;DHT22;64680;53.800;9.988;2022-11-04T04:51:34;9.90;79.00
75994;DHT22;64680;53.800;9.988;2022-11-04T04:54:01;10.00;78.50
75994;DHT22;64680;53.800;9.988;2022-11-04T04:56:26;10.00;78.30
75994;DHT22;64680;53.800;9.988;2022-11-04T04:58:52;10.10;77.80
75994;DHT22;64680;53.800;9.988;2022-11-04T05:01:18;10.10;77.30
75994;DHT22;64680;53.800;9.988;2022-11-04T05:03:43;10.10;75.90
75994;DHT22;64680;53.800;9.988;2022-11-04T05:06:12;10.10;75.20
75994;DHT22;64680;53.800;9.988;2022-11-04T05:08:38;10.20;74.10
75994;DHT22;64680;53.800;9.988;2022-11-04T05:11:04;10.20;74.20
75994;DHT22;64680;53.800;9.988;2022-11-04T05:13:29;10.20;73.20
75994;DHT22;64680;53.800;9.988;2022-11-04T05:16:05;10.30;71.60
75994;DHT22;64680;53.800;9.988;2022-11-04T05:18:31;10.30;71.90
75994;DHT22;64680;53.800;9.988;2022-11-04T05:20:57;10.20;70.80
75994;DHT22;64680;53.800;9.988;2022-11-04T05:23:22;10.30;71.20
75994;DHT22;64680;53.800;9.988;2022-11-04T05:25:48;10.20;70.30
75994;DHT22;64680;53.800;9.988;2022-11-04T05:28:14;10.20;68.90
75994;DHT22;64680;53.800;9.988;2022-11-04T05:30:39;10.20;69.50
75994;DHT22;64680;53.800;9.988;2022-11-04T05:33:05;10.20;69.00
75994;DHT22;64680;53.800;9.988;2022-11-04T05:35:32;10.20;69.30
75994;DHT22;64680;53.800;9.988;2022-11-04T05:37:58;10.20;69.50
75994;DHT22;64680;53.800;9.988;2022-11-04T05:40:24;10.20;70.20
75994;DHT22;64680;53.800;9.988;2022-11-04T05:42:49;10.10;68.80
75994;DHT22;64680;53.800;9.988;2022-11-04T05:45:15;10.20;69.30
75994;DHT22;64680;53.800;9.988;2022-11-04T05:47:41;10.10;68.80
75994;DHT22;64680;53.800;9.988;2022-11-04T05:50:07;10.10;69.30
75994;DHT22;64680;53.800;9.988;2022-11-04T05:52:32;10.10;70.00
75994;DHT22;64680;53.800;9.988;2022-11-04T05:54:58;10.00;68.60
75994;DHT22;64680;53.800;9.988;2022-11-04T05:57:23;10.10;68.70
75994;DHT22;64680;53.800;9.988;2022-11-04T05:59:49;10.10;68.60
75994;DHT22;64680;53.800;9.988;2022-11-04T06:02:15;10.10;68.30
75994;DHT22;64680;53.800;9.988;2022-11-04T06:04:40;10.00;68.70
75994;DHT22;64680;53.800;9.988;2022-11-04T06:07:06;10.00;69.00
75994;DHT22;64680;53.800;9.988;2022-11-04T06:09:31;10.00;68.50
75994;DHT22;64680;53.800;9.988;2022-11-04T06:12:11;9.90;68.50
75994;DHT22;64680;53.800;9.988;2022-11-04T06:14:40;10.00;68.20
75994;DHT22;64680;53.800;9.988;2022-11-04T06:17:05;10.00;69.00
75994;DHT22;64680;53.800;9.988;2022-11-04T06:19:31;10.00;68.60
75994;DHT22;64680;53.800;9.988;2022-11-04T06:21:57;9.90;68.10
75994;DHT22;64680;53.800;9.988;2022-11-04T06:24:22;9.90;68.60
75994;DHT22;64680;53.800;9.988;2022-11-04T06:26:48;9.90;69.20
75994;DHT22;64680;53.800;9.988;2022-11-04T06:29:13;9.90;69.60
75994;DHT22;64680;53.800;9.988;2022-11-04T06:31:39;9.80;69.30
75994;DHT22;64680;53.800;9.988;2022-11-04T06:34:05;9.80;69.80
75994;DHT22;64680;53.800;9.988;2022-11-04T06:36:30;9.80;70.30
75994;DHT22;64680;53.800;9.988;2022-11-04T06:38:56;9.80;69.60
75994;DHT22;64680;53.800;9.988;2022-11-04T06:41:21;9.70;70.00
75994;DHT22;64680;53.800;9.988;2022-11-04T06:43:47;9.80;70.80
75994;DHT22;64680;53.800;9.988;2022-11-04T06:48:57;9.70;69.90
75994;DHT22;64680;53.800;9.988;2022-11-04T06:51:24;9.80;70.20
75994;DHT22;64680;53.800;9.988;2022-11-04T06:53:49;9.70;70.10
75994;DHT22;64680;53.800;9.988;2022-11-04T06:56:15;9.70;70.20
75994;DHT22;64680;53.800;9.988;2022-11-04T06:58:40;9.70;70.40
75994;DHT22;64680;53.800;9.988;2022-11-04T07:01:06;9.70;70.50
75994;DHT22;64680;53.800;9.988;2022-11-04T07:03:32;9.70;70.50
75994;DHT22;64680;53.800;9.988;2022-11-04T07:05:57;9.80;70.10
75994;DHT22;64680;53.800;9.988;2022-11-04T07:08:23;9.80;69.80
75994;DHT22;64680;53.800;9.988;2022-11-04T07:10:48;9.80;70.20
75994;DHT22;64680;53.800;9.988;2022-11-04T07:13:14;9.80;70.30
75994;DHT22;64680;53.800;9.988;2022-11-04T07:15:41;9.90;69.90
75994;DHT22;64680;53.800;9.988;2022-11-04T07:18:06;9.90;70.20
75994;DHT22;64680;53.800;9.988;2022-11-04T07:20:33;9.90;69.90
75994;DHT22;64680;53.800;9.988;2022-11-04T07:23:00;9.90;69.70
75994;DHT22;64680;53.800;9.988;2022-11-04T07:25:25;10.00;69.60
75994;DHT22;64680;53.800;9.988;2022-11-04T07:27:51;10.00;69.90
75994;DHT22;64680;53.800;9.988;2022-11-04T07:30:16;10.00;69.10
75994;DHT22;64680;53.800;9.988;2022-11-04T07:32:45;10.00;69.60
75994;DHT22;64680;53.800;9.988;2022-11-04T07:35:10;10.00;69.90
75994;DHT22;64680;53.800;9.988;2022-11-04T07:37:36;10.00;69.60
75994;DHT22;64680;53.800;9.988;2022-11-04T07:40:01;10.00;68.90
75994;DHT22;64680;53.800;9.988;2022-11-04T07:42:27;10.00;68.90
75994;DHT22;64680;53.800;9.988;2022-11-04T07:44:52;10.00;68.90
75994;DHT22;64680;53.800;9.988;2022-11-04T07:47:18;9.90;69.30
75994;DHT22;64680;53.800;9.988;2022-11-04T07:49:43;9.90;69.00
75994;DHT22;64680;53.800;9.988;2022-11-04T07:52:09;9.90;69.10
75994;DHT22;64680;53.800;9.988;2022-11-04T07:54:35;9.90;69.30
75994;DHT22;64680;53.800;9.988;2022-11-04T07:57:00;9.90;69.80
75994;DHT22;64680;53.800;9.988;2022-11-04T07:59:26;9.90;69.50
75994;DHT22;64680;53.800;9.988;2022-11-04T08:01:52;9.90;69.80
75994;DHT22;64680;53.800;9.988;2022-11-04T08:04:18;9.90;69.50
75994;DHT22;64680;53.800;9.988;2022-11-04T08:06:44;9.90;70.00
75994;DHT22;64680;53.800;9.988;2022-11-04T08:09:09;9.90;69.10
75994;DHT22;64680;53.800;9.988;2022-11-04T08:11:35;9.90;69.30
75994;DHT22;64680;53.800;9.988;2022-11-04T08:14:02;10.00;68.50
75994;DHT22;64680;53.800;9.988;2022-11-04T08:16:28;10.10;69.20
75994;DHT22;64680;53.800;9.988;2022-11-04T08:18:54;10.10;69.20
75994;DHT22;64680;53.800;9.988;2022-11-04T08:21:26;10.10;69.60
75994;DHT22;64680;53.800;9.988;2022-11-04T08:23:52;10.10;68.60
75994;DHT22;64680;53.800;9.988;2022-11-04T08:26:19;10.20;68.70
75994;DHT22;64680;53.800;9.988;2022-11-04T08:28:44;10.20;68.10
75994;DHT22;64680;53.800;9.988;2022-11-04T08:31:17;10.30;68.00
75994;DHT22;64680;53.800;9.988;2022-11-04T08:33:43;10.30;68.40
75994;DHT22;64680;53.800;9.988;2022-11-04T08:36:16;10.30;68.50
75994;DHT22;64680;53.800;9.988;2022-11-04T08:38:42;10.30;67.50
75994;DHT22;64680;53.800;9.988;2022-11-04T08:41:08;10.30;67.80
75994;DHT22;64680;53.800;9.988;2022-11-04T08:43:34;10.20;68.20
75994;DHT22;64680;53.800;9.988;2022-11-04T08:46:01;10.20;68.30
75994;DHT22;64680;53.800;9.988;2022-11-04T08:48:27;10.20;68.10
75994;DHT22;64680;53.800;9.988;2022-11-04T08:50:55;10.30;68.10
75994;DHT22;64680;53.800;9.988;2022-11-04T08:53:21;10.30;67.80
75994;DHT22;64680;53.800;9.988;2022-11-04T08:55:47;10.30;68.10
75994;DHT22;64680;53.800;9.988;2022-11-04T08:58:13;10.30;68.10
75994;DHT22;64680;53.800;9.988;2022-11-04T09:00:39;10.30;67.40
75994;DHT22;64680;53.800;9.988;2022-11-04T09:03:04;10.40;67.50
75994;DHT22;64680;53.800;9.988;2022-11-04T09:05:30;10.30;67.50
75994;DHT22;64680;53.800;9.988;2022-11-04T09:07:56;10.40;67.70
75994;DHT22;64680;53.800;9.988;2022-11-04T09:10:22;10.40;67.70
75994;DHT22;64680;53.800;9.988;2022-11-04T09:12:48;10.50;67.30
75994;DHT22;64680;53.800;9.988;2022-11-04T09:15:14;10.50;66.50
75994;DHT22;64680;53.800;9.988;2022-11-04T09:17:39;10.50;66.70
75994;DHT22;64680;53.800;9.988;2022-11-04T09:20:06;10.60;66.80
75994;DHT22;64680;53.800;9.988;2022-11-04T09:22:31;10.60;66.60
75994;DHT22;64680;53.800;9.988;2022-11-04T09:24:57;10.60;65.80
75994;DHT22;64680;53.800;9.988;2022-11-04T09:27:22;10.70;65.70
75994;DHT22;64680;53.800;9.988;2022-11-04T09:29:48;10.70;66.00
75994;DHT22;64680;53.800;9.988;2022-11-04T09:32:14;10.70;65.70
75994;DHT22;64680;53.800;9.988;2022-11-04T09:34:39;10.80;67.00
75994;DHT22;64680;53.800;9.988;2022-11-04T09:37:05;11.10;64.80
75994;DHT22;64680;53.800;9.988;2022-11-04T09:39:31;11.30;64.40
75994;DHT22;64680;53.800;9.988;2022-11-04T09:44:53;11.20;63.70
75994;DHT22;64680;53.800;9.988;2022-11-04T09:47:20;11.10;63.20
75994;DHT22;64680;53.800;9.988;2022-11-04T09:49:48;11.00;64.00
75994;DHT22;64680;53.800;9.988;2022-11-04T09:52:22;10.90;63.70
75994;DHT22;64680;53.800;9.988;2022-11-04T09:55:11;10.90;64.50
75994;DHT22;64680;53.800;9.988;2022-11-04T09:57:36;10.90;64.50
75994;DHT22;64680;53.800;9.988;2022-11-04T10:00:03;10.90;64.70
75994;DHT22;64680;53.800;9.988;2022-11-04T10:05:48;11.00;64.70
75994;DHT22;64680;53.800;9.988;2022-11-04T10:11:14;11.10;64.20
75994;DHT22;64680;53.800;9.988;2022-11-04T10:16:50;11.50;62.90
75994;DHT22;64680;53.800;9.988;2022-11-04T10:22:21;11.80;60.80
75994;DHT22;64680;53.800;9.988;2022-11-04T10:27:32;11.90;60.60
75994;DHT22;64680;53.800;9.988;2022-11-04T10:30:03;11.90;61.10
75994;DHT22;64680;53.800;9.988;2022-11-04T10:32:35;12.00;60.20
75994;DHT22;64680;53.800;9.988;2022-11-04T10:37:51;12.20;59.00
75994;DHT22;64680;53.800;9.988;2022-11-04T10:40:24;12.20;59.30
75994;DHT22;64680;53.800;9.988;2022-11-04T10:42:51;12.10;59.80
75994;DHT22;64680;53.800;9.988;2022-11-04T10:45:19;12.20;60.20
75994;DHT22;64680;53.800;9.988;2022-11-04T10:47:55;12.20;60.80
75994;DHT22;64680;53.800;9.988;2022-11-04T10:51:01;12.30;59.40
75994;DHT22;64680;53.800;9.988;2022-11-04T10:53:29;12.30;58.40
75994;DHT22;64680;53.800;9.988;2022-11-04T11:01:58;12.40;58.70
75994;DHT22;64680;53.800;9.988;2022-11-04T11:04:33;12.30;59.00
75994;DHT22;64680;53.800;9.988;2022-11-04T11:07:01;12.30;58.70
75994;DHT22;64680;53.800;9.988;2022-11-04T11:09:29;12.30;60.10
75994;DHT22;64680;53.800;9.988;2022-11-04T11:11:59;12.30;59.70
75994;DHT22;64680;53.800;9.988;2022-11-04T11:16:55;12.30;59.30
75994;DHT22;64680;53.800;9.988;2022-11-04T11:19:23;12.30;58.90
75994;DHT22;64680;53.800;9.988;2022-11-04T11:21:51;12.30;58.60
75994;DHT22;64680;53.800;9.988;2022-11-04T11:24:21;12.40;59.30
75994;DHT22;64680;53.800;9.988;2022-11-04T11:26:49;12.60;57.70
75994;DHT22;64680;53.800;9.988;2022-11-04T11:29:21;12.70;58.30
75994;DHT22;64680;53.800;9.988;2022-11-04T11:31:48;12.80;57.50
75994;DHT22;64680;53.800;9.988;2022-11-04T11:34:21;12.90;57.20
75994;DHT22;64680;53.800;9.988;2022-11-04T11:36:51;12.90;56.90
75994;DHT22;64680;53.800;9.988;2022-11-04T11:39:23;12.80;56.90
75994;DHT22;64680;53.800;9.988;2022-11-04T11:42:10;12.90;56.70
75994;DHT22;64680;53.800;9.988;2022-11-04T11:44:39;13.00;56.30
75994;DHT22;64680;53.800;9.988;2022-11-04T11:50:20;13.30;55.20
75994;DHT22;64680;53.800;9.988;2022-11-04T11:52:49;13.20;55.40
75994;DHT22;64680;53.800;9.988;2022-11-04T11:55:28;12.90;56.10
75994;DHT22;64680;53.800;9.988;2022-11-04T11:58:25;12.70;56.30
75994;DHT22;64680;53.800;9.988;2022-11-04T12:01:07;12.70;57.20
75994;DHT22;64680;53.800;9.988;2022-11-04T12:03:47;12.70;57.60
75994;DHT22;64680;53.800;9.988;2022-11-04T12:09:12;12.80;57.20
75994;DHT22;64680;53.800;9.988;2022-11-04T12:20:44;12.60;57.20
75994;DHT22;64680;53.800;9.988;2022-11-04T12:23:28;12.60;57.90
75994;DHT22;64680;53.800;9.988;2022-11-04T12:37:50;12.60;58.30
75994;DHT22;64680;53.800;9.988;2022-11-04T12:40:00;12.60;57.90
75994;DHT22;64680;53.800;9.988;2022-11-04T12:42:44;12.60;58.30
75994;DHT22;64680;53.800;9.988;2022-11-04T12:48:11;12.40;58.50
75994;DHT22;64680;53.800;9.988;2022-11-04T12:51:04;12.30;59.80
75994;DHT22;64680;53.800;9.988;2022-11-04T12:53:59;12.30;59.30
75994;DHT22;64680;53.800;9.988;2022-11-04T12:56:35;12.50;58.60
75994;DHT22;64680;53.800;9.988;2022-11-04T13:04:46;12.70;56.90
75994;DHT22;64680;53.800;9.988;2022-11-04T13:07:34;12.60;57.10
75994;DHT22;64680;53.800;9.988;2022-11-04T13:10:33;12.60;56.30
75994;DHT22;64680;53.800;9.988;2022-11-04T13:13:03;12.50;57.10
75994;DHT22;64680;53.800;9.988;2022-11-04T13:15:36;12.60;57.70
75994;DHT22;64680;53.800;9.988;2022-11-04T13:18:05;12.60;57.60
75994;DHT22;64680;53.800;9.988;2022-11-04T13:20:43;12.60;58.00
75994;DHT22;64680;53.800;9.988;2022-11-04T13:23:40;12.50;56.70
75994;DHT22;64680;53.800;9.988;2022-11-04T13:26:13;12.50;57.50
75994;DHT22;64680;53.800;9.988;2022-11-04T13:28:40;12.40;57.50
75994;DHT22;64680;53.800;9.988;2022-11-04T13:31:29;12.40;58.30
75994;DHT22;64680;53.800;9.988;2022-11-04T13:34:06;12.40;58.30
75994;DHT22;64680;53.800;9.988;2022-11-04T13:39:32;12.40;59.00
75994;DHT22;64680;53.800;9.988;2022-11-04T13:44:50;12.30;58.90
75994;DHT22;64680;53.800;9.988;2022-11-04T13:47:23;12.20;59.10
75994;DHT22;64680;53.800;9.988;2022-11-04T13:49:51;12.20;59.60
75994;DHT22;64680;53.800;9.988;2022-11-04T13:52:23;12.20;57.70
75994;DHT22;64680;53.800;9.988;2022-11-04T13:57:22;12.10;58.20
75994;DHT22;64680;53.800;9.988;2022-11-04T14:00:07;12.10;58.30
75994;DHT22;64680;53.800;9.988;2022-11-04T14:02:54;12.00;58.60
75994;DHT22;64680;53.800;9.988;2022-11-04T14:18:53;11.80;59.70
75994;DHT22;64680;53.800;9.988;2022-11-04T14:21:26;11.90;59.10
75994;DHT22;64680;53.800;9.988;2022-11-04T14:23:58;11.70;59.00
75994;DHT22;64680;53.800;9.988;2022-11-04T14:26:45;11.60;60.20
75994;DHT22;64680;53.800;9.988;2022-11-04T14:29:24;11.50;60.40
75994;DHT22;64680;53.800;9.988;2022-11-04T14:31:56;11.40;60.10
75994;DHT22;64680;53.800;9.988;2022-11-04T14:34:27;11.30;60.80
75994;DHT22;64680;53.800;9.988;2022-11-04T14:36:55;11.40;60.20
75994;DHT22;64680;53.800;9.988;2022-11-04T14:39:24;11.40;60.70
75994;DHT22;64680;53.800;9.988;2022-11-04T14:41:59;11.40;60.40
75994;DHT22;64680;53.800;9.988;2022-11-04T14:47:14;11.40;59.80
75994;DHT22;64680;53.800;9.988;2022-11-04T14:57:44;11.20;60.90
75994;DHT22;64680;53.800;9.988;2022-11-04T15:05:49;11.10;59.70
75994;DHT22;64680;53.800;9.988;2022-11-04T15:11:14;10.90;60.80
75994;DHT22;64680;53.800;9.988;2022-11-04T15:13:49;10.90;60.10
75994;DHT22;64680;53.800;9.988;2022-11-04T15:16:22;10.90;60.70
75994;DHT22;64680;53.800;9.988;2022-11-04T15:18:50;10.70;61.20
75994;DHT22;64680;53.800;9.988;2022-11-04T15:21:16;10.70;62.10
75994;DHT22;64680;53.800;9.988;2022-11-04T15:23:44;10.60;62.60
75994;DHT22;64680;53.800;9.988;2022-11-04T15:26:31;10.50;62.80
75994;DHT22;64680;53.800;9.988;2022-11-04T15:29:00;10.50;63.00
75994;DHT22;64680;53.800;9.988;2022-11-04T15:31:28;10.50;63.10
75994;DHT22;64680;53.800;9.988;2022-11-04T15:33:58;10.50;64.20
75994;DHT22;64680;53.800;9.988;2022-11-04T15:36:51;10.50;63.60
75994;DHT22;64680;53.800;9.988;2022-11-04T15:39:27;10.50;64.60
75994;DHT22;64680;53.800;9.988;2022-11-04T15:41:57;10.50;65.50
75994;DHT22;64680;53.800;9.988;2022-11-04T15:44:53;10.40;66.10
75994;DHT22;64680;53.800;9.988;2022-11-04T15:47:21;10.30;66.70
75994;DHT22;64680;53.800;9.988;2022-11-04T15:49:49;10.20;66.90
75994;DHT22;64680;53.800;9.988;2022-11-04T15:52:25;10.10;67.70
75994;DHT22;64680;53.800;9.988;2022-11-04T15:54:53;10.10;68.30
75994;DHT22;64680;53.800;9.988;2022-11-04T15:57:26;10.00;68.00
75994;DHT22;64680;53.800;9.988;2022-11-04T16:00:07;10.00;68.70
75994;DHT22;64680;53.800;9.988;2022-11-04T16:02:37;10.00;68.50
75994;DHT22;64680;53.800;9.988;2022-11-04T16:07:43;9.90;68.70
75994;DHT22;64680;53.800;9.988;2022-11-04T16:18:43;9.40;69.00
75994;DHT22;64680;53.800;9.988;2022-11-04T16:23:57;9.20;70.30
75994;DHT22;64680;53.800;9.988;2022-11-04T16:26:27;9.10;70.60
75994;DHT22;64680;53.800;9.988;2022-11-04T16:28:56;9.00;70.80
75994;DHT22;64680;53.800;9.988;2022-11-04T16:31:25;8.80;71.30
75994;DHT22;64680;53.800;9.988;2022-11-04T16:33:51;8.80;71.60
75994;DHT22;64680;53.800;9.988;2022-11-04T16:36:17;8.70;72.10
75994;DHT22;64680;53.800;9.988;2022-11-04T16:38:58;8.60;72.30
75994;DHT22;64680;53.800;9.988;2022-11-04T16:41:26;8.50;72.90
75994;DHT22;64680;53.800;9.988;2022-11-04T16:43:52;8.50;73.60
75994;DHT22;64680;53.800;9.988;2022-11-04T16:46:18;8.50;74.10
75994;DHT22;64680;53.800;9.988;2022-11-04T16:48:43;8.50;74.30
75994;DHT22;64680;53.800;9.988;2022-11-04T16:51:18;8.60;74.40
75994;DHT22;64680;53.800;9.988;2022-11-04T16:53:50;8.60;74.60
75994;DHT22;64680;53.800;9.988;2022-11-04T16:56:19;8.70;74.60
75994;DHT22;64680;53.800;9.988;2022-11-04T16:58:45;8.80;75.40
75994;DHT22;64680;53.800;9.988;2022-11-04T17:01:11;8.80;75.70
75994;DHT22;64680;53.800;9.988;2022-11-04T17:03:37;9.00;74.60
75994;DHT22;64680;53.800;9.988;2022-11-04T17:06:03;9.10;74.30
75994;DHT22;64680;53.800;9.988;2022-11-04T17:08:31;9.20;74.10
75994;DHT22;64680;53.800;9.988;2022-11-04T17:10:57;9.30;73.80
75994;DHT22;64680;53.800;9.988;2022-11-04T17:13:22;9.20;74.50
75994;DHT22;64680;53.800;9.988;2022-11-04T17:15:48;9.20;74.10
75994;DHT22;64680;53.800;9.988;2022-11-04T17:18:15;9.10;74.30
75994;DHT22;64680;53.800;9.988;2022-11-04T17:20:43;9.10;74.10
75994;DHT22;64680;53.800;9.988;2022-11-04T17:23:12;8.90;74.10
75994;DHT22;64680;53.800;9.988;2022-11-04T17:25:38;8.90;73.90
75994;DHT22;64680;53.800;9.988;2022-11-04T17:28:04;8.80;74.00
75994;DHT22;64680;53.800;9.988;2022-11-04T17:30:29;8.70;74.10
75994;DHT22;64680;53.800;9.988;2022-11-04T17:32:55;8.70;74.20
75994;DHT22;64680;53.800;9.988;2022-11-04T17:35:21;8.60;74.00
75994;DHT22;64680;53.800;9.988;2022-11-04T17:37:50;8.50;74.50
75994;DHT22;64680;53.800;9.988;2022-11-04T17:40:17;8.40;74.60
75994;DHT22;64680;53.800;9.988;2022-11-04T17:42:45;8.30;74.60
75994;DHT22;64680;53.800;9.988;2022-11-04T17:45:30;8.30;75.00
75994;DHT22;64680;53.800;9.988;2022-11-04T17:47:55;8.20;75.50
75994;DHT22;64680;53.800;9.988;2022-11-04T17:50:21;8.20;75.60
75994;DHT22;64680;53.800;9.988;2022-11-04T17:52:47;8.10;75.90
75994;DHT22;64680;53.800;9.988;2022-11-04T17:55:12;8.10;75.90
75994;DHT22;64680;53.800;9.988;2022-11-04T17:57:38;8.00;76.30
75994;DHT22;64680;53.800;9.988;2022-11-04T18:00:05;8.00;76.60
75994;DHT22;64680;53.800;9.988;2022-11-04T18:02:31;8.00;76.50
75994;DHT22;64680;53.800;9.988;2022-11-04T18:04:57;8.00;76.80
75994;DHT22;64680;53.800;9.988;2022-11-04T18:07:23;7.90;76.50
75994;DHT22;64680;53.800;9.988;2022-11-04T18:09:48;7.90;76.60
75994;DHT22;64680;53.800;9.988;2022-11-04T18:12:14;7.80;76.50
75994;DHT22;64680;53.800;9.988;2022-11-04T18:14:58;7.80;77.00
75994;DHT22;64680;53.800;9.988;2022-11-04T18:17:24;7.80;76.90
75994;DHT22;64680;53.800;9.988;2022-11-04T18:19:51;7.70;76.60
75994;DHT22;64680;53.800;9.988;2022-11-04T18:22:17;7.70;76.90
75994;DHT22;64680;53.800;9.988;2022-11-04T18:24:43;7.70;77.10
75994;DHT22;64680;53.800;9.988;2022-11-04T18:27:08;7.70;77.20
75994;DHT22;64680;53.800;9.988;2022-11-04T18:29:35;7.60;76.80
75994;DHT22;64680;53.800;9.988;2022-11-04T18:32:01;7.60;76.90
75994;DHT22;64680;53.800;9.988;2022-11-04T18:34:26;7.60;77.40
75994;DHT22;64680;53.800;9.988;2022-11-04T18:36:52;7.70;78.00
75994;DHT22;64680;53.800;9.988;2022-11-04T18:39:19;7.70;78.10
75994;DHT22;64680;53.800;9.988;2022-11-04T18:41:45;7.70;78.30
75994;DHT22;64680;53.800;9.988;2022-11-04T18:44:14;7.80;78.30